SBCJ/CKS METAR and TAF weather

Enter ICAO airport designator
Station Type Date Time Source
SBCJ METAR 2019/05/25 21:30 UTC NOAA

SBCJ 252130Z 00000KT CAVOK 24/21 Q1014


Station Type Date Time Source
SBCJ Decoded METAR 2019/05/25 21:30 UTC NOAA

Carajas / Maraba, Brazil (SBCJ) 06-07S 050-00W
May 25, 2019 - 05:30 PM EDT / 2019.05.25 2130 UTC
Wind: Calm:0
Visibility: greater than 7 mile(s):0
Temperature: 75 F (24 C)
Dew Point: 69 F (21 C)
Relative Humidity: 83%
Pressure (altimeter): 29.94 in. Hg (1014 hPa)
ob: SBCJ 252130Z 00000KT CAVOK 24/21 Q1014
cycle: 21

Station Type Date Time Source
SBCJ TAF 2019/05/26 00:00 UTC NOAA

TAF SBCJ 252200Z 2600/2612 00000KT CAVOK TN19/2605Z TX23/2612Z
BECMG 2608/2610 9999 SCT009
RMK PFM

Example: see airport list